Time;durP1;ratioP1;P1;durP2;ratioP2;P2;SDS_P1;SDS_P2;PMS_P1;PMS_P2;Temp;Humidity;BMP_temperature;BMP_pressure;BME280_temperature;BME280_humidity;BME280_pressure;Samples;Min_cycle;Max_cycle;Signal;HPM_P1;HPM_P2
2023/01/05 00:01:52;;;;;;;5.43;5.13;;;;;;;;;;4994580;28;20105;-76
2023/01/05 00:04:17;;;;;;;5.68;5.38;;;;;;;;;;4998980;28;20044;-77
2023/01/05 00:06:43;;;;;;;5.57;5.28;;;;;;;;;;4998144;28;20041;-76
2023/01/05 00:09:15;;;;;;;5.40;5.20;;;;;;;;;;4991211;28;20034;-76
2023/01/05 00:22:48;;;;;;;5.10;4.90;;;;;;;;;;4998491;28;20022;-77
2023/01/05 00:25:23;;;;;;;5.30;5.05;;;;;;;;;;4993499;28;20117;-78
2023/01/05 00:27:50;;;;;;;5.18;4.97;;;;;;;;;;4992434;28;20049;-78
2023/01/05 00:30:28;;;;;;;5.20;5.00;;;;;;;;;;4997508;28;20292;-77
2023/01/05 00:32:53;;;;;;;5.10;4.90;;;;;;;;;;4998872;28;20120;-77
2023/01/05 00:35:20;;;;;;;5.97;5.68;;;;;;;;;;4987449;28;20061;-77
2023/01/05 00:37:46;;;;;;;5.57;5.28;;;;;;;;;;4999259;28;20568;-77
2023/01/05 00:40:15;;;;;;;5.20;4.90;;;;;;;;;;4999275;28;20058;-78
2023/01/05 00:42:41;;;;;;;5.32;5.10;;;;;;;;;;4992423;28;20117;-78
2023/01/05 00:45:09;;;;;;;4.90;4.70;;;;;;;;;;4991081;28;20117;-77
2023/01/05 00:47:34;;;;;;;5.30;5.10;;;;;;;;;;5001972;28;20033;-77
2023/01/05 00:50:00;;;;;;;5.13;4.93;;;;;;;;;;4991103;28;20512;-78
2023/01/05 00:52:26;;;;;;;5.43;5.15;;;;;;;;;;4996617;28;20038;-78
2023/01/05 00:54:52;;;;;;;5.50;5.10;;;;;;;;;;5000301;28;20050;-78
2023/01/05 00:57:17;;;;;;;5.07;4.88;;;;;;;;;;4994853;28;20046;-78
2023/01/05 00:59:43;;;;;;;5.57;5.32;;;;;;;;;;4989022;28;20041;-78
2023/01/05 01:02:09;;;;;;;5.57;5.28;;;;;;;;;;4994312;28;20052;-78
2023/01/05 01:04:35;;;;;;;5.60;5.30;;;;;;;;;;5002519;28;20040;-78
2023/01/05 01:07:03;;;;;;;5.60;5.30;;;;;;;;;;4994479;28;20461;-78
2023/01/05 01:09:29;;;;;;;5.60;5.30;;;;;;;;;;5000449;28;20035;-78
2023/01/05 01:11:55;;;;;;;5.50;5.30;;;;;;;;;;5002253;28;20038;-78
2023/01/05 01:14:21;;;;;;;5.25;5.05;;;;;;;;;;4997204;28;20442;-78
2023/01/05 01:16:49;;;;;;;5.28;5.07;;;;;;;;;;4995535;28;20081;-78
2023/01/05 01:19:21;;;;;;;5.00;4.80;;;;;;;;;;5001330;28;20513;-78
2023/01/05 01:21:47;;;;;;;5.43;5.22;;;;;;;;;;5017805;28;20025;-77
2023/01/05 01:24:19;;;;;;;5.20;5.00;;;;;;;;;;5018493;28;20064;-78
2023/01/05 01:26:45;;;;;;;5.50;5.20;;;;;;;;;;5007467;28;20034;-78
2023/01/05 01:29:11;;;;;;;5.30;5.10;;;;;;;;;;4994624;28;20057;-78
2023/01/05 01:31:37;;;;;;;5.53;5.22;;;;;;;;;;5002990;28;20049;-77
2023/01/05 01:34:03;;;;;;;5.13;4.93;;;;;;;;;;4997447;28;20034;-77
2023/01/05 01:36:29;;;;;;;5.30;5.07;;;;;;;;;;4992775;28;20038;-77
2023/01/05 01:38:55;;;;;;;5.20;5.00;;;;;;;;;;4993086;28;20022;-78
2023/01/05 01:41:21;;;;;;;5.32;5.13;;;;;;;;;;5000362;28;20045;-77
2023/01/05 01:43:50;;;;;;;5.07;4.88;;;;;;;;;;4991586;28;20747;-77
2023/01/05 01:46:19;;;;;;;5.38;5.18;;;;;;;;;;4994455;28;20117;-77
2023/01/05 01:48:49;;;;;;;5.53;5.28;;;;;;;;;;5000068;28;20077;-77
2023/01/05 01:51:36;;;;;;;;;;;;;;;;;;4994513;28;20088;-77
2023/01/05 01:54:05;;;;;;;5.60;5.30;;;;;;;;;;4995890;28;19933;-77
2023/01/05 01:56:46;;;;;;;5.50;5.20;;;;;;;;;;4997914;28;20038;-78
2023/01/05 01:59:12;;;;;;;5.35;5.15;;;;;;;;;;5001271;28;20034;-77
2023/01/05 02:01:39;;;;;;;5.70;5.40;;;;;;;;;;4988967;28;20157;-77
2023/01/05 02:04:06;;;;;;;5.18;4.97;;;;;;;;;;4993226;28;20052;-78
2023/01/05 02:14:59;;;;;;;5.47;5.18;;;;;;;;;;4977100;28;20519;-78
2023/01/05 02:17:45;;;;;;;5.75;5.45;;;;;;;;;;4987126;28;20046;-77
2023/01/05 02:20:42;;;;;;;5.90;5.60;;;;;;;;;;4998875;28;20043;-77
2023/01/05 02:23:35;;;;;;;5.30;5.10;;;;;;;;;;4996969;28;20025;-78
2023/01/05 02:26:18;;;;;;;5.30;5.10;;;;;;;;;;4998321;28;20030;-77
2023/01/05 02:28:50;;;;;;;5.40;5.20;;;;;;;;;;4994265;28;20512;-77
2023/01/05 02:31:20;;;;;;;5.57;5.28;;;;;;;;;;4995340;28;20121;-77
2023/01/05 02:34:10;;;;;;;5.72;5.32;;;;;;;;;;4997304;28;20033;-77
2023/01/05 02:36:58;;;;;;;5.70;5.40;;;;;;;;;;4994333;28;20042;-77
2023/01/05 02:39:28;;;;;;;5.60;5.35;;;;;;;;;;4995751;28;20113;-77
2023/01/05 02:42:17;;;;;;;5.10;4.80;;;;;;;;;;4988345;28;20034;-77
2023/01/05 02:44:43;;;;;;;5.25;5.05;;;;;;;;;;4991785;28;20475;-76
2023/01/05 02:47:24;;;;;;;5.28;5.07;;;;;;;;;;4994708;28;20030;-77
2023/01/05 02:50:31;;;;;;;5.10;4.90;;;;;;;;;;4992125;28;20034;-77
2023/01/05 02:53:08;;;;;;;5.35;5.00;;;;;;;;;;4970200;28;20561;-77
2023/01/05 02:55:48;;;;;;;5.22;5.03;;;;;;;;;;4991341;28;20055;-77
2023/01/05 02:58:20;;;;;;;5.10;4.90;;;;;;;;;;4984466;28;20057;-77
2023/01/05 03:01:09;;;;;;;5.53;5.18;;;;;;;;;;4993430;28;20213;-77
2023/01/05 03:03:42;;;;;;;5.25;5.05;;;;;;;;;;4971242;28;20057;-76
2023/01/05 03:06:15;;;;;;;5.13;4.93;;;;;;;;;;4989618;28;20431;-77
2023/01/05 03:08:48;;;;;;;5.53;5.22;;;;;;;;;;4969044;28;20121;-77
2023/01/05 03:14:19;;;;;;;5.30;4.90;;;;;;;;;;4970388;28;20042;-77
2023/01/05 03:16:48;;;;;;;5.50;5.30;;;;;;;;;;4970589;28;20093;-77
2023/01/05 03:19:35;;;;;;;5.10;4.90;;;;;;;;;;4969447;28;20034;-77
2023/01/05 03:36:56;;;;;;;5.53;5.32;;;;;;;;;;4994121;28;20040;-77
2023/01/05 03:39:25;;;;;;;5.47;5.18;;;;;;;;;;4990399;28;20118;-77
2023/01/05 03:41:52;;;;;;;5.28;5.00;;;;;;;;;;4994810;28;20046;-77
2023/01/05 03:44:18;;;;;;;5.47;5.28;;;;;;;;;;4992086;28;20030;-77
2023/01/05 03:46:44;;;;;;;5.30;5.10;;;;;;;;;;4991254;28;20034;-77
2023/01/05 03:49:10;;;;;;;5.60;5.32;;;;;;;;;;4995534;28;20536;-77
2023/01/05 03:51:36;;;;;;;5.60;5.38;;;;;;;;;;5002223;28;20033;-77
2023/01/05 03:54:02;;;;;;;5.35;5.15;;;;;;;;;;4977892;28;20528;-77
2023/01/05 03:56:30;;;;;;;5.60;5.30;;;;;;;;;;4974267;28;20046;-77
2023/01/05 03:58:57;;;;;;;5.70;5.40;;;;;;;;;;4997002;28;20038;-77
2023/01/05 04:01:23;;;;;;;5.32;5.03;;;;;;;;;;4995039;28;20030;-77
2023/01/05 04:03:49;;;;;;;5.50;5.30;;;;;;;;;;4992428;28;20084;-77
2023/01/05 04:06:17;;;;;;;5.30;5.10;;;;;;;;;;4972727;28;20093;-77
2023/01/05 04:08:42;;;;;;;5.40;5.20;;;;;;;;;;4994836;28;20038;-76
2023/01/05 04:11:15;;;;;;;5.47;5.18;;;;;;;;;;4975998;28;20042;-77
2023/01/05 04:13:45;;;;;;;5.45;5.25;;;;;;;;;;4984147;28;20046;-77
2023/01/05 04:16:11;;;;;;;5.80;5.50;;;;;;;;;;4992244;28;20299;-77
2023/01/05 04:18:39;;;;;;;5.72;5.45;;;;;;;;;;4993265;28;20133;-76
2023/01/05 04:21:06;;;;;;;5.53;5.28;;;;;;;;;;4972195;28;20509;-77
2023/01/05 04:23:32;;;;;;;5.60;5.40;;;;;;;;;;4993392;28;20065;-77
2023/01/05 04:25:58;;;;;;;5.13;4.93;;;;;;;;;;4998974;28;20054;-77
2023/01/05 04:28:24;;;;;;;5.22;5.03;;;;;;;;;;4994864;28;20046;-77
2023/01/05 04:30:54;;;;;;;5.65;5.35;;;;;;;;;;5003036;28;20057;-76
2023/01/05 04:33:21;;;;;;;5.43;5.13;;;;;;;;;;4995147;28;20038;-77
2023/01/05 04:35:47;;;;;;;5.60;5.30;;;;;;;;;;4998949;28;20121;-77
2023/01/05 04:38:14;;;;;;;5.78;5.47;;;;;;;;;;4989953;28;20030;-77
2023/01/05 04:40:39;;;;;;;5.40;5.10;;;;;;;;;;4990450;28;20034;-77
2023/01/05 04:43:06;;;;;;;5.47;5.18;;;;;;;;;;4983437;28;20429;-76
2023/01/05 04:45:33;;;;;;;5.57;5.28;;;;;;;;;;4991721;28;20043;-77
2023/01/05 04:47:59;;;;;;;5.93;5.63;;;;;;;;;;5007556;28;20026;-77
2023/01/05 04:50:26;;;;;;;5.47;5.18;;;;;;;;;;4993060;28;20038;-77
2023/01/05 04:52:53;;;;;;;5.40;5.10;;;;;;;;;;4994767;28;20042;-77
2023/01/05 04:55:20;;;;;;;5.30;5.00;;;;;;;;;;4991290;28;20042;-77
2023/01/05 04:57:46;;;;;;;5.75;5.45;;;;;;;;;;4995101;28;20406;-76
2023/01/05 05:00:13;;;;;;;6.25;5.85;;;;;;;;;;4990932;28;20525;-76
2023/01/05 05:02:39;;;;;;;5.63;5.32;;;;;;;;;;4990126;28;20173;-77
2023/01/05 05:05:08;;;;;;;5.63;5.32;;;;;;;;;;4991617;28;20331;-77
2023/01/05 05:07:34;;;;;;;5.50;5.20;;;;;;;;;;4960743;28;20039;-77
2023/01/05 05:10:02;;;;;;;5.50;5.10;;;;;;;;;;4992848;28;20042;-77
2023/01/05 05:12:28;;;;;;;5.30;5.00;;;;;;;;;;4983142;28;20038;-78
2023/01/05 05:14:53;;;;;;;5.35;5.05;;;;;;;;;;4997780;28;20688;-77
2023/01/05 05:17:19;;;;;;;5.97;5.57;;;;;;;;;;4995019;28;20058;-76
2023/01/05 05:19:45;;;;;;;5.60;5.30;;;;;;;;;;4985870;28;20030;-76
2023/01/05 05:22:12;;;;;;;5.72;5.43;;;;;;;;;;4995110;28;20038;-76
2023/01/05 05:24:37;;;;;;;5.60;5.30;;;;;;;;;;4995758;28;20053;-76
2023/01/05 05:27:03;;;;;;;5.30;5.10;;;;;;;;;;5004886;28;20039;-77
2023/01/05 05:29:29;;;;;;;5.72;5.43;;;;;;;;;;4994176;28;20061;-77
2023/01/05 05:31:54;;;;;;;5.88;5.57;;;;;;;;;;4997209;28;20548;-77
2023/01/05 05:34:20;;;;;;;5.88;5.57;;;;;;;;;;4996849;28;20553;-77
2023/01/05 05:36:45;;;;;;;5.43;5.20;;;;;;;;;;4996032;28;20034;-78
2023/01/05 05:39:12;;;;;;;5.50;5.20;;;;;;;;;;4996871;28;20038;-77
2023/01/05 05:41:37;;;;;;;5.70;5.40;;;;;;;;;;4988841;28;20030;-76
2023/01/05 05:44:03;;;;;;;5.53;5.22;;;;;;;;;;4994968;28;20038;-76
2023/01/05 05:46:29;;;;;;;5.70;5.40;;;;;;;;;;4995007;28;20034;-76
2023/01/05 05:48:55;;;;;;;5.68;5.38;;;;;;;;;;4992089;28;20490;-76
2023/01/05 05:51:22;;;;;;;5.55;5.28;;;;;;;;;;4989062;28;20042;-76
2023/01/05 05:53:48;;;;;;;5.85;5.55;;;;;;;;;;4999972;28;20100;-77
2023/01/05 05:56:13;;;;;;;5.60;5.30;;;;;;;;;;4996507;28;20109;-77
2023/01/05 05:58:39;;;;;;;5.65;5.35;;;;;;;;;;4995064;28;20477;-78
2023/01/05 06:01:05;;;;;;;5.72;5.43;;;;;;;;;;5009744;28;20029;-76
2023/01/05 06:03:31;;;;;;;6.00;5.70;;;;;;;;;;5008614;28;20045;-76
2023/01/05 06:05:56;;;;;;;6.05;5.75;;;;;;;;;;5007122;28;20027;-78
2023/01/05 06:08:22;;;;;;;5.70;5.38;;;;;;;;;;4998034;28;20034;-78
2023/01/05 06:10:49;;;;;;;6.10;5.70;;;;;;;;;;4997446;28;20041;-77
2023/01/05 06:13:16;;;;;;;6.32;6.00;;;;;;;;;;4996417;28;20042;-78
2023/01/05 06:15:42;;;;;;;6.22;5.70;;;;;;;;;;4990881;28;20038;-79
2023/01/05 06:18:07;;;;;;;7.15;6.65;;;;;;;;;;4996190;28;20128;-78
2023/01/05 06:20:33;;;;;;;6.70;6.20;;;;;;;;;;5003108;28;20117;-78
2023/01/05 06:22:59;;;;;;;6.60;6.18;;;;;;;;;;4999485;28;20508;-78
2023/01/05 06:25:24;;;;;;;7.03;6.63;;;;;;;;;;4997224;28;20113;-77
2023/01/05 06:27:50;;;;;;;6.50;6.20;;;;;;;;;;4996677;28;20102;-78
2023/01/05 06:30:15;;;;;;;6.88;6.47;;;;;;;;;;5005399;28;20378;-78
2023/01/05 06:32:41;;;;;;;7.30;6.90;;;;;;;;;;4999617;28;20613;-78
2023/01/05 06:35:07;;;;;;;9.10;8.23;;;;;;;;;;4996750;28;20030;-78
2023/01/05 06:37:32;;;;;;;7.85;7.35;;;;;;;;;;5001533;28;20499;-77
2023/01/05 06:39:58;;;;;;;7.63;7.13;;;;;;;;;;4980840;28;20030;-78
2023/01/05 06:42:24;;;;;;;7.40;6.88;;;;;;;;;;4996883;28;20037;-78
2023/01/05 06:44:50;;;;;;;7.68;7.07;;;;;;;;;;4996620;28;20482;-77
2023/01/05 06:47:16;;;;;;;7.00;6.60;;;;;;;;;;4999986;28;20076;-77
2023/01/05 06:49:41;;;;;;;8.38;7.78;;;;;;;;;;4995639;28;20041;-78
2023/01/05 06:52:07;;;;;;;8.18;7.68;;;;;;;;;;4993600;28;20097;-77
2023/01/05 06:54:32;;;;;;;8.05;7.55;;;;;;;;;;4998538;28;20038;-77
2023/01/05 06:56:58;;;;;;;7.90;7.38;;;;;;;;;;5002256;28;20049;-77
2023/01/05 06:59:23;;;;;;;8.95;8.20;;;;;;;;;;4998718;28;20133;-77
2023/01/05 07:01:49;;;;;;;7.82;7.32;;;;;;;;;;4998228;28;20490;-76
2023/01/05 07:04:14;;;;;;;7.40;7.00;;;;;;;;;;5003500;28;20030;-78
2023/01/05 07:06:40;;;;;;;8.23;7.72;;;;;;;;;;5007447;28;20096;-79
2023/01/05 07:09:05;;;;;;;8.63;7.93;;;;;;;;;;4998876;28;20034;-78
2023/01/05 07:11:31;;;;;;;8.35;7.78;;;;;;;;;;4996312;28;20054;-76
2023/01/05 07:13:56;;;;;;;8.43;7.72;;;;;;;;;;5004218;28;20477;-76
2023/01/05 07:16:22;;;;;;;8.30;7.70;;;;;;;;;;5002238;28;20593;-77
2023/01/05 07:18:48;;;;;;;7.32;6.72;;;;;;;;;;4992720;28;20030;-77
2023/01/05 07:21:13;;;;;;;7.80;7.20;;;;;;;;;;4995520;28;20038;-75
2023/01/05 07:23:39;;;;;;;7.80;7.30;;;;;;;;;;4993306;28;20031;-74
2023/01/05 07:26:06;;;;;;;7.90;7.40;;;;;;;;;;4991569;28;20027;-76
2023/01/05 07:28:33;;;;;;;8.32;7.72;;;;;;;;;;4998675;28;20033;-76
2023/01/05 07:30:59;;;;;;;8.38;7.78;;;;;;;;;;4994837;28;20038;-76
2023/01/05 07:33:24;;;;;;;11.98;7.32;;;;;;;;;;4989632;28;20485;-76
2023/01/05 07:35:50;;;;;;;8.32;7.70;;;;;;;;;;4986960;28;21268;-75
2023/01/05 07:38:15;;;;;;;8.40;7.70;;;;;;;;;;4998657;28;20035;-76
2023/01/05 07:40:41;;;;;;;8.00;7.60;;;;;;;;;;4990271;28;20085;-75
2023/01/05 07:43:06;;;;;;;7.78;7.30;;;;;;;;;;4991135;28;20038;-74
2023/01/05 07:45:32;;;;;;;8.40;7.78;;;;;;;;;;4996979;28;20042;-76
2023/01/05 07:47:58;;;;;;;8.13;7.63;;;;;;;;;;4997742;28;20030;-75
2023/01/05 07:50:24;;;;;;;8.73;8.00;;;;;;;;;;4994506;28;20038;-76
2023/01/05 07:52:50;;;;;;;9.00;7.25;;;;;;;;;;4989138;28;20038;-75
2023/01/05 07:55:15;;;;;;;10.27;8.18;;;;;;;;;;4997225;28;20442;-75
2023/01/05 07:57:41;;;;;;;8.77;8.07;;;;;;;;;;4999787;28;20334;-74
2023/01/05 08:00:08;;;;;;;9.27;8.40;;;;;;;;;;4990135;28;20406;-76
2023/01/05 08:02:40;;;;;;;8.75;8.05;;;;;;;;;;4988702;28;20038;-75
2023/01/05 08:05:06;;;;;;;8.48;7.60;;;;;;;;;;4999128;28;20041;-76
2023/01/05 08:07:32;;;;;;;8.70;7.88;;;;;;;;;;4991318;28;20169;-76
2023/01/05 08:15:25;;;;;;;8.07;7.68;;;;;;;;;;4991817;28;20034;-75
2023/01/05 08:17:51;;;;;;;7.63;7.22;;;;;;;;;;4988000;28;20027;-75
2023/01/05 08:20:17;;;;;;;7.53;7.03;;;;;;;;;;4994907;28;20042;-76
2023/01/05 08:22:42;;;;;;;7.57;7.10;;;;;;;;;;4997699;28;20037;-77
2023/01/05 08:25:08;;;;;;;8.65;7.60;;;;;;;;;;4987140;28;20026;-76
2023/01/05 08:27:34;;;;;;;8.65;7.93;;;;;;;;;;4992085;28;20026;-75
2023/01/05 08:29:59;;;;;;;8.23;7.80;;;;;;;;;;4998650;28;20037;-76
2023/01/05 08:32:25;;;;;;;8.13;7.50;;;;;;;;;;4990226;28;20060;-76
2023/01/05 08:34:50;;;;;;;8.18;7.47;;;;;;;;;;4986861;28;20038;-76
2023/01/05 08:37:16;;;;;;;8.07;7.40;;;;;;;;;;4985746;28;20093;-76
2023/01/05 08:39:41;;;;;;;8.85;7.97;;;;;;;;;;4988153;28;20048;-76
2023/01/05 08:42:07;;;;;;;9.48;8.55;;;;;;;;;;4988351;28;20062;-76
2023/01/05 08:44:32;;;;;;;8.10;7.50;;;;;;;;;;4992649;28;20137;-77
2023/01/05 08:46:58;;;;;;;8.45;7.65;;;;;;;;;;4997706;28;20041;-76
2023/01/05 08:49:24;;;;;;;9.93;8.40;;;;;;;;;;4996666;28;20034;-76
2023/01/05 08:51:49;;;;;;;7.75;7.18;;;;;;;;;;4988291;28;20598;-76
2023/01/05 08:54:15;;;;;;;7.90;7.30;;;;;;;;;;4995522;28;20084;-77
2023/01/05 08:56:42;;;;;;;8.63;7.90;;;;;;;;;;4998689;28;20041;-77
2023/01/05 08:59:11;;;;;;;9.85;7.72;;;;;;;;;;4989731;28;20053;-76
2023/01/05 09:01:37;;;;;;;8.55;7.63;;;;;;;;;;4986211;28;20027;-76
2023/01/05 09:04:02;;;;;;;8.10;7.40;;;;;;;;;;4994394;28;20037;-77
2023/01/05 09:06:28;;;;;;;8.75;7.15;;;;;;;;;;4990016;28;20038;-76
2023/01/05 09:08:53;;;;;;;7.85;7.10;;;;;;;;;;4990188;28;20034;-76
2023/01/05 09:11:21;;;;;;;8.55;7.25;;;;;;;;;;4997452;28;20038;-76
2023/01/05 09:13:52;;;;;;;8.68;7.47;;;;;;;;;;4999790;28;20058;-76
2023/01/05 09:16:21;;;;;;;8.07;7.38;;;;;;;;;;4988013;28;20587;-77
2023/01/05 09:18:47;;;;;;;8.10;7.30;;;;;;;;;;4988962;28;20026;-76
2023/01/05 09:21:13;;;;;;;8.40;7.15;;;;;;;;;;4995741;28;20409;-76
2023/01/05 09:23:39;;;;;;;7.75;7.00;;;;;;;;;;4998081;28;20031;-76
2023/01/05 09:26:07;;;;;;;8.88;7.57;;;;;;;;;;4988652;28;20050;-76
2023/01/05 09:28:35;;;;;;;9.43;7.53;;;;;;;;;;4991753;28;20049;-76
2023/01/05 09:31:27;;;;;;;11.93;8.13;;;;;;;;;;4996312;28;20504;-76
2023/01/05 09:33:52;;;;;;;13.23;8.02;;;;;;;;;;4994107;28;20054;-76
2023/01/05 09:36:18;;;;;;;10.50;8.15;;;;;;;;;;4989280;28;20042;-76
2023/01/05 09:38:51;;;;;;;13.27;7.65;;;;;;;;;;4985861;28;20031;-76
2023/01/05 09:41:54;;;;;;;10.85;7.47;;;;;;;;;;4989656;28;20066;-76
2023/01/05 09:44:39;;;;;;;9.40;7.78;;;;;;;;;;4954662;28;20073;-76
2023/01/05 09:47:17;;;;;;;10.15;7.60;;;;;;;;;;4955799;28;20043;-76
2023/01/05 09:49:46;;;;;;;15.90;8.87;;;;;;;;;;4942150;28;20054;-73
2023/01/05 09:52:12;;;;;;;9.48;8.55;;;;;;;;;;4956946;28;20058;-75
2023/01/05 09:54:39;;;;;;;10.43;8.07;;;;;;;;;;4940821;28;20470;-75
2023/01/05 09:57:12;;;;;;;9.40;8.40;;;;;;;;;;4949951;28;20093;-76
2023/01/05 09:59:42;;;;;;;15.27;9.00;;;;;;;;;;4951914;28;20127;-76
2023/01/05 10:02:28;;;;;;;10.80;8.60;;;;;;;;;;4955938;28;20050;-76
2023/01/05 10:04:55;;;;;;;13.82;8.93;;;;;;;;;;4930192;28;21001;-75
2023/01/05 10:07:42;;;;;;;13.70;8.63;;;;;;;;;;4950185;28;20086;-76
2023/01/05 10:10:28;;;;;;;15.43;8.35;;;;;;;;;;4956362;28;20449;-76
2023/01/05 10:13:02;;;;;;;9.27;7.53;;;;;;;;;;4955282;28;20043;-76
2023/01/05 10:15:40;;;;;;;13.85;8.40;;;;;;;;;;4933908;28;20043;-75
2023/01/05 10:18:19;;;;;;;18.70;8.90;;;;;;;;;;4969429;28;20057;-75
2023/01/05 10:20:51;;;;;;;11.73;8.98;;;;;;;;;;4985350;28;20859;-75
2023/01/05 10:23:35;;;;;;;13.68;8.57;;;;;;;;;;4981887;28;20118;-75
2023/01/05 10:26:12;;;;;;;16.08;8.25;;;;;;;;;;4993898;28;20034;-75
2023/01/05 10:28:50;;;;;;;9.60;8.40;;;;;;;;;;4995216;28;20037;-77
2023/01/05 10:31:59;;;;;;;13.00;8.18;;;;;;;;;;4985922;28;20513;-77
2023/01/05 10:34:57;;;;;;;8.73;7.60;;;;;;;;;;4971890;28;20057;-76
2023/01/05 10:37:36;;;;;;;12.32;8.43;;;;;;;;;;4972932;28;20062;-77
2023/01/05 10:40:26;;;;;;;9.30;8.40;;;;;;;;;;4975937;28;20046;-76
2023/01/05 10:43:13;;;;;;;10.25;8.45;;;;;;;;;;4975282;28;20796;-74
2023/01/05 10:45:39;;;;;;;9.48;8.07;;;;;;;;;;4989306;28;20102;-76
2023/01/05 10:48:12;;;;;;;15.85;7.95;;;;;;;;;;4990021;28;20038;-77
2023/01/05 10:50:43;;;;;;;18.67;9.98;;;;;;;;;;4975889;28;20046;-77
2023/01/05 10:53:15;;;;;;;9.48;8.48;;;;;;;;;;4959362;28;20385;-76
2023/01/05 10:55:56;;;;;;;17.50;9.63;;;;;;;;;;4976032;28;20128;-76
2023/01/05 10:58:29;;;;;;;13.27;8.55;;;;;;;;;;4977043;28;20117;-76
2023/01/05 11:00:59;;;;;;;9.40;8.50;;;;;;;;;;4973387;28;20046;-77
2023/01/05 11:03:39;;;;;;;11.48;7.60;;;;;;;;;;4964917;28;20065;-77
2023/01/05 11:06:07;;;;;;;17.23;9.05;;;;;;;;;;4967035;28;20034;-77
2023/01/05 11:08:34;;;;;;;9.30;8.27;;;;;;;;;;4951011;28;20521;-77
2023/01/05 11:11:04;;;;;;;10.60;8.38;;;;;;;;;;4983703;28;20599;-77
2023/01/05 11:13:38;;;;;;;17.38;8.00;;;;;;;;;;4992018;28;20053;-76
2023/01/05 11:16:16;;;;;;;13.52;8.20;;;;;;;;;;4991359;28;20758;-74
2023/01/05 11:19:00;;;;;;;14.30;8.85;;;;;;;;;;4979127;28;20046;-77
2023/01/05 11:21:44;;;;;;;10.32;8.10;;;;;;;;;;4991922;28;20492;-76
2023/01/05 11:24:34;;;;;;;11.32;7.70;;;;;;;;;;4995662;28;20460;-77
2023/01/05 11:27:19;;;;;;;12.10;8.00;;;;;;;;;;4989517;28;20501;-77
2023/01/05 11:29:44;;;;;;;9.20;8.35;;;;;;;;;;4989559;28;20625;-76
2023/01/05 11:32:12;;;;;;;11.90;8.13;;;;;;;;;;4995320;28;20049;-76
2023/01/05 11:34:45;;;;;;;11.45;7.72;;;;;;;;;;4994979;28;20135;-77
2023/01/05 11:37:11;;;;;;;9.00;8.18;;;;;;;;;;4986795;28;20049;-77
2023/01/05 11:39:45;;;;;;;8.85;7.80;;;;;;;;;;4994900;28;20046;-77
2023/01/05 11:42:29;;;;;;;13.10;8.32;;;;;;;;;;4992944;28;20563;-77
2023/01/05 11:45:02;;;;;;;11.55;8.40;;;;;;;;;;4989758;28;20037;-75
2023/01/05 11:47:35;;;;;;;8.85;8.13;;;;;;;;;;5000520;28;20037;-77
2023/01/05 11:50:29;;;;;;;11.50;8.68;;;;;;;;;;4998174;28;20112;-77
2023/01/05 11:52:57;;;;;;;11.88;8.82;;;;;;;;;;4983367;28;20603;-77
2023/01/05 11:55:30;;;;;;;11.15;8.35;;;;;;;;;;4997356;28;20045;-77
2023/01/05 11:58:30;;;;;;;9.68;8.20;;;;;;;;;;4999403;28;20121;-77
2023/01/05 12:01:20;;;;;;;11.68;8.30;;;;;;;;;;4991799;28;20042;-77
2023/01/05 12:04:28;;;;;;;13.45;8.00;;;;;;;;;;4990313;28;20054;-77
2023/01/05 12:07:09;;;;;;;12.10;9.05;;;;;;;;;;4999307;28;20048;-77
2023/01/05 12:09:36;;;;;;;10.40;8.60;;;;;;;;;;4996697;28;20041;-77
2023/01/05 12:12:18;;;;;;;10.65;8.13;;;;;;;;;;4990917;28;20041;-77
2023/01/05 12:14:54;;;;;;;12.15;8.90;;;;;;;;;;4992737;28;20514;-77
2023/01/05 12:18:06;;;;;;;11.45;9.15;;;;;;;;;;4999391;28;20038;-76
2023/01/05 12:21:01;;;;;;;9.20;8.23;;;;;;;;;;4966054;28;20050;-78
2023/01/05 12:23:43;;;;;;;10.00;8.95;;;;;;;;;;4994288;28;20053;-77
2023/01/05 12:26:17;;;;;;;15.80;8.63;;;;;;;;;;4999211;28;20033;-76
2023/01/05 12:28:50;;;;;;;8.93;8.13;;;;;;;;;;4985523;28;20111;-76
2023/01/05 12:31:50;;;;;;;9.20;8.32;;;;;;;;;;4993145;28;20038;-76
2023/01/05 12:34:26;;;;;;;11.60;8.23;;;;;;;;;;4994432;28;20146;-76
2023/01/05 12:37:01;;;;;;;11.07;8.23;;;;;;;;;;4996372;28;20034;-77
2023/01/05 12:39:38;;;;;;;14.07;8.38;;;;;;;;;;4986397;28;20038;-77
2023/01/05 12:42:04;;;;;;;11.30;8.45;;;;;;;;;;4992259;28;20536;-77
2023/01/05 12:44:47;;;;;;;9.40;8.38;;;;;;;;;;4997619;28;20038;-77
2023/01/05 12:47:52;;;;;;;10.13;8.45;;;;;;;;;;4992147;28;20053;-76
2023/01/05 12:50:27;;;;;;;10.38;8.20;;;;;;;;;;4993450;28;20049;-77
2023/01/05 12:53:01;;;;;;;11.38;7.85;;;;;;;;;;4998174;28;20108;-76
2023/01/05 12:55:44;;;;;;;9.90;8.00;;;;;;;;;;4988305;28;20533;-77
2023/01/05 12:58:28;;;;;;;13.45;8.77;;;;;;;;;;4992130;28;20125;-77
2023/01/05 13:00:56;;;;;;;12.73;8.40;;;;;;;;;;4995553;28;20045;-77
2023/01/05 13:03:43;;;;;;;14.30;8.43;;;;;;;;;;4992532;28;20042;-77
2023/01/05 13:06:15;;;;;;;9.20;7.90;;;;;;;;;;4989743;28;20038;-76
2023/01/05 13:08:45;;;;;;;9.02;8.02;;;;;;;;;;4990253;28;20037;-77
2023/01/05 13:11:19;;;;;;;11.88;7.90;;;;;;;;;;4995765;28;20035;-77
2023/01/05 13:13:52;;;;;;;10.98;7.80;;;;;;;;;;4989231;28;20089;-77
2023/01/05 13:16:22;;;;;;;13.68;8.95;;;;;;;;;;4986643;28;20048;-77
2023/01/05 13:18:55;;;;;;;11.48;8.20;;;;;;;;;;4996733;28;20072;-77
2023/01/05 13:21:22;;;;;;;8.60;7.90;;;;;;;;;;4992436;28;20135;-78
2023/01/05 13:23:59;;;;;;;11.55;8.15;;;;;;;;;;4979166;28;20042;-77
2023/01/05 13:26:25;;;;;;;13.98;8.88;;;;;;;;;;5001654;28;20108;-77
2023/01/05 13:28:54;;;;;;;8.95;8.15;;;;;;;;;;4997921;28;20183;-77
2023/01/05 13:31:22;;;;;;;10.68;8.20;;;;;;;;;;4983897;28;20040;-77
2023/01/05 13:34:33;;;;;;;10.53;8.00;;;;;;;;;;4992454;28;20045;-77
2023/01/05 13:37:20;;;;;;;8.82;8.02;;;;;;;;;;4984359;28;20057;-75
2023/01/05 13:40:13;;;;;;;14.27;9.25;;;;;;;;;;4987985;28;20461;-77
2023/01/05 13:43:13;;;;;;;15.98;9.00;;;;;;;;;;4982058;28;20077;-76
2023/01/05 13:45:57;;;;;;;10.43;8.68;;;;;;;;;;4988145;28;20477;-77
2023/01/05 13:48:45;;;;;;;11.90;8.85;;;;;;;;;;4993032;28;20073;-79
2023/01/05 13:51:42;;;;;;;14.10;9.30;;;;;;;;;;4974455;28;20397;-77
2023/01/05 13:54:20;;;;;;;10.13;8.52;;;;;;;;;;4997250;28;20034;-78
2023/01/05 13:56:48;;;;;;;11.90;8.50;;;;;;;;;;4987026;28;20033;-78
2023/01/05 13:59:28;;;;;;;14.68;9.30;;;;;;;;;;4990883;28;20101;-78
2023/01/05 14:01:55;;;;;;;11.98;8.93;;;;;;;;;;4987216;28;20030;-78
2023/01/05 14:04:27;;;;;;;15.73;8.70;;;;;;;;;;4997284;28;20131;-78
2023/01/05 14:07:05;;;;;;;10.27;8.50;;;;;;;;;;4994486;28;20089;-77
2023/01/05 14:09:36;;;;;;;9.13;8.35;;;;;;;;;;4994859;28;20038;-77
2023/01/05 14:12:08;;;;;;;12.50;7.55;;;;;;;;;;4989379;28;20078;-76
2023/01/05 14:14:55;;;;;;;17.45;8.68;;;;;;;;;;4989293;28;20045;-76
2023/01/05 14:17:49;;;;;;;9.43;7.90;;;;;;;;;;4993199;28;20046;-76
2023/01/05 14:20:41;;;;;;;10.88;8.30;;;;;;;;;;4998442;28;20033;-76
2023/01/05 14:23:21;;;;;;;10.32;8.60;;;;;;;;;;4989783;28;20049;-77
2023/01/05 14:25:58;;;;;;;12.93;8.30;;;;;;;;;;4993083;28;20042;-77
2023/01/05 14:28:26;;;;;;;13.43;9.30;;;;;;;;;;4987621;28;20047;-76
2023/01/05 14:31:20;;;;;;;14.05;8.40;;;;;;;;;;4996746;28;20051;-76
2023/01/05 14:34:15;;;;;;;12.55;9.27;;;;;;;;;;4990243;28;20066;-76
2023/01/05 14:36:40;;;;;;;12.70;8.13;;;;;;;;;;4996378;28;20046;-76
2023/01/05 14:39:25;;;;;;;12.45;8.70;;;;;;;;;;5003698;28;20100;-78
2023/01/05 14:41:58;;;;;;;11.25;8.57;;;;;;;;;;4992115;28;20069;-78
2023/01/05 14:44:41;;;;;;;13.57;8.65;;;;;;;;;;5001699;28;20708;-77
2023/01/05 14:47:07;;;;;;;12.02;9.63;;;;;;;;;;4998447;28;20137;-76
2023/01/05 14:49:39;;;;;;;14.68;9.20;;;;;;;;;;4993418;28;20054;-78
2023/01/05 14:52:15;;;;;;;14.10;9.40;;;;;;;;;;4995358;28;20040;-76
2023/01/05 14:54:40;;;;;;;15.18;8.82;;;;;;;;;;4993268;28;20113;-77
2023/01/05 14:57:24;;;;;;;13.23;9.30;;;;;;;;;;4998403;28;20097;-76
2023/01/05 15:00:06;;;;;;;13.07;10.43;;;;;;;;;;4995906;28;20454;-77
2023/01/05 15:02:52;;;;;;;18.95;9.27;;;;;;;;;;4995310;28;20353;-75
2023/01/05 15:05:18;;;;;;;11.93;8.77;;;;;;;;;;4989691;28;20050;-76
2023/01/05 15:08:15;;;;;;;12.23;8.57;;;;;;;;;;4994840;28;20117;-76
2023/01/05 15:11:12;;;;;;;12.98;9.20;;;;;;;;;;4989149;28;20038;-76
2023/01/05 15:14:31;;;;;;;14.43;9.45;;;;;;;;;;4998542;28;20030;-77
2023/01/05 15:16:59;;;;;;;;;;;;;;;;;;4999359;28;20053;-76
2023/01/05 15:20:06;;;;;;;13.45;8.43;;;;;;;;;;4989372;28;19922;-76
2023/01/05 15:22:47;;;;;;;18.52;8.00;;;;;;;;;;5013323;28;20037;-76
2023/01/05 15:25:23;;;;;;;9.02;7.95;;;;;;;;;;5019763;28;20027;-76
2023/01/05 15:28:27;;;;;;;10.85;8.35;;;;;;;;;;5014986;28;20643;-76
2023/01/05 15:31:14;;;;;;;18.17;8.55;;;;;;;;;;4992808;28;20048;-76
2023/01/05 15:33:48;;;;;;;14.05;8.70;;;;;;;;;;4995003;28;20044;-77
2023/01/05 15:36:27;;;;;;;13.93;7.95;;;;;;;;;;4985962;28;20046;-78
2023/01/05 15:38:53;;;;;;;9.73;8.00;;;;;;;;;;4993971;28;20165;-77
2023/01/05 15:41:21;;;;;;;12.93;8.70;;;;;;;;;;4988933;28;20051;-76
2023/01/05 15:43:47;;;;;;;16.73;9.07;;;;;;;;;;4991834;28;20961;-75
2023/01/05 15:46:19;;;;;;;14.88;8.90;;;;;;;;;;4992163;28;20126;-77
2023/01/05 15:48:48;;;;;;;13.45;8.73;;;;;;;;;;4994089;28;20450;-76
2023/01/05 15:51:26;;;;;;;16.33;9.18;;;;;;;;;;4994041;28;20843;-77
2023/01/05 15:53:54;;;;;;;15.40;8.75;;;;;;;;;;4987832;28;20027;-76